METAR (acronimo di METeorological Air Report) è un messaggio meteo emesso nella maggior parte dei casi in ambito aeroportuale

LIPF - Ferrara, It
Distanza dalla Stazione: 8 km
Ultimo Aggiornamento: Lunedì 18 Novembre 2019 13:55 CET
Sereno
Sereno
 Wind from Nord-Est
Vento: Nord-Est 4 km/h
Temperatura: 13°C
Punto di Rugiada: 8°C
Umidità: 72%
Barometro: 1012 hPa
Condizioni: Sereno
Visibilità: superiore a 10 km
2019/11/18 12:55 LIPF 181255Z 04002KT CAVOK 13/08 Q1012
LIPE - Bologna Borgo Panigale, It
Distanza dalla Stazione: 46 km
Ultimo Aggiornamento: Lunedì 18 Novembre 2019 14:20 CET
Qualche Nuvola
Qualche Nuvola
 Wind from Ovest-Nord-Ovest
Vento: Ovest-Nord-Ovest 6 km/h
Temperatura: 10°C
Punto di Rugiada: 8°C
Umidità: 88%
Barometro: 1013 hPa
Nuvole: Qualche Nuvola
Visibilità: 9 km
Nuvole nel Dettaglio: Qualche Nuvola 1372 m
2019/11/18 13:20 LIPE 181320Z 30003KT 260V330 9000 FEW045 10/08 Q1013
LIMF - Torino Caselle, It
Distanza dalla Stazione: 320 km
Ultimo Aggiornamento: Lunedì 18 Novembre 2019 14:20 CET
Qualche Nuvola
Qualche Nuvola
 Wind from varies
Vento: variabile 4 km/h
Temperatura: 7°C
Punto di Rugiada: 4°C
Umidità: 81%
Barometro: 1013 hPa
Nuvole: Qualche Nuvola
Visibilità: 10 km
Nuvole nel Dettaglio: Qualche Nuvola 457 m
2019/11/18 13:20 LIMF 181320Z VRB02KT 9999 FEW015 07/04 Q1013
 
LIML - Milano Malpensa, It
Distanza dalla Stazione: 249 km
Ultimo Aggiornamento: Lunedì 18 Novembre 2019 14:20 CET
Pioviggine, Prevalentemente Nuvoloso
Pioviggine, Prevalentemente Nuvoloso
 Wind from varies
Vento: variabile 4 km/h
Temperatura: 8°C
Punto di Rugiada: 6°C
Umidità: 87%
Barometro: 1014 hPa
Condizioni: Pioviggine
Nuvole: Prevalentemente Nuvoloso
Visibilità: 7 km
Nuvole nel Dettaglio: Qualche Nuvola 305 m
Prevalentemente Nuvoloso 1829 m
2019/11/18 13:20 LIML 181320Z VRB02KT 7000 -DZ FEW010 BKN060 08/06 Q1014 NOSIG
LIME - Bergamo Orio al Serio, It
Distanza dalla Stazione: 181 km
Ultimo Aggiornamento: Lunedì 18 Novembre 2019 14:20 CET
Prevalentemente Nuvoloso
Prevalentemente Nuvoloso
 Wind from varies
Vento: variabile 4 km/h
Temperatura: 9°C
Punto di Rugiada: 6°C
Umidità: 82%
Barometro: 1013 hPa
Nuvole: Prevalentemente Nuvoloso
Visibilità: 10 km
Nuvole nel Dettaglio: Prevalentemente Nuvoloso 2743 m
2019/11/18 13:20 LIME 181320Z VRB02KT 9999 BKN090 09/06 Q1013 NOSIG
LIPZ - Venezia Tessera, It
Distanza dalla Stazione: 93 km
Ultimo Aggiornamento: Lunedì 18 Novembre 2019 14:20 CET
Qualche Nuvola
Qualche Nuvola
 Wind from Sud-Est
Vento: Sud-Est 9 km/h
Temperatura: 12°C
Punto di Rugiada: 7°C
Umidità: 72%
Barometro: 1014 hPa
Nuvole: Qualche Nuvola
Visibilità: 10 km
Nuvole nel Dettaglio: Qualche Nuvola 2134 m
2019/11/18 13:20 LIPZ 181320Z 13005KT 9999 FEW070 12/07 Q1014 NOSIG
 
LIVT - Trieste, It
Distanza dalla Stazione: 179 km
Ultimo Aggiornamento: Lunedì 18 Novembre 2019 13:55 CET
Parzialmente Nuvoloso
Parzialmente Nuvoloso
 Wind from varies
Vento: variabile 0 km/h
Temperatura: 15°C
Punto di Rugiada: 11°C
Umidità: 77%
Barometro: 1014 hPa
Nuvole: Parzialmente Nuvoloso
Visibilità: 10 km
Nuvole nel Dettaglio: Parzialmente Nuvoloso 914 m
2019/11/18 12:55 LIVT 181255Z /////KT 9999 SCT030 15/11 Q1014 RMK SCT QUK 0 QUL 0 VIS MAR 20 KM VIS MIN 9999
LIMJ - Genova, It
Distanza dalla Stazione: 229 km
Ultimo Aggiornamento: Lunedì 18 Novembre 2019 14:20 CET
Nuvoloso
Nuvoloso
 Wind from Nord-Nord-Est
Vento: Nord-Nord-Est 17 km/h
Temperatura: 10°C
Wind Chill: 8°C
Punto di Rugiada: 5°C
Umidità: 71%
Barometro: 1012 hPa
Nuvole: Nuvoloso
Visibilità: 10 km
Nuvole nel Dettaglio: Parzialmente Nuvoloso 1524 m
Nuvoloso 2438 m
2019/11/18 13:20 LIMJ 181320Z 02009KT 350V070 9999 SCT050 OVC080 10/05 Q1012
LIRQ - Firenze Amerigo Vespucci, It
Distanza dalla Stazione: 119 km
Ultimo Aggiornamento: Lunedì 18 Novembre 2019 14:20 CET
Prevalentemente Nuvoloso
Prevalentemente Nuvoloso
 Wind from Est
Vento: Est 13 km/h
Temperatura: 13°C
Punto di Rugiada: 10°C
Umidità: 82%
Barometro: 1012 hPa
Nuvole: Prevalentemente Nuvoloso
Visibilità: 10 km
Nuvole nel Dettaglio: Prevalentemente Nuvoloso 1524 m
2019/11/18 13:20 LIRQ 181320Z 09007KT 060V130 9999 BKN050 13/10 Q1012
 
LIPY - Ancona, It
Distanza dalla Stazione: 189 km
Ultimo Aggiornamento: Lunedì 18 Novembre 2019 13:50 CET
Sereno
Sereno
 Wind from Sud-Est
Vento: Sud-Est 7 km/h
Temperatura: 16°C
Punto di Rugiada: 8°C
Umidità: 59%
Barometro: 1014 hPa
Condizioni: Sereno
Visibilità: superiore a 10 km
2019/11/18 12:50 LIPY 181250Z 14004KT 090V180 CAVOK 16/08 Q1014
LIBP - Pescara, It
Distanza dalla Stazione: 333 km
Ultimo Aggiornamento: Lunedì 18 Novembre 2019 13:50 CET
Sereno
Sereno
 Wind from Est-Nord-Est
Vento: Est-Nord-Est 11 km/h
Temperatura: 19°C
Punto di Rugiada: 6°C
Umidità: 43%
Barometro: 1014 hPa
Condizioni: Sereno
Visibilità: superiore a 10 km
2019/11/18 12:50 LIBP 181250Z 06006KT CAVOK 19/06 Q1014
LIRF - Roma-Fiumicino, It
Distanza dalla Stazione: 334 km
Ultimo Aggiornamento: Lunedì 18 Novembre 2019 14:20 CET
Prevalentemente Nuvoloso
Prevalentemente Nuvoloso
 Wind from Sud-Sud-Est
Vento: Sud-Sud-Est 24 km/h
Temperatura: 15°C
Punto di Rugiada: 12°C
Umidità: 82%
Barometro: 1013 hPa
Nuvole: Prevalentemente Nuvoloso
Visibilità: 10 km
Nuvole nel Dettaglio: Qualche Nuvola 610 m
Prevalentemente Nuvoloso 1372 m
2019/11/18 13:20 LIRF 181320Z 15013KT 9999 FEW020 BKN045 15/12 Q1013 TEMPO 4000 SHRA
 
LIRN - Napoli Capodichino, It
Distanza dalla Stazione: 494 km
Ultimo Aggiornamento: Lunedì 18 Novembre 2019 14:20 CET
Prevalentemente Nuvoloso
Prevalentemente Nuvoloso
 Wind from Sud-Sud-Ovest
Vento: Sud-Sud-Ovest 9 km/h
Temperatura: 18°C
Punto di Rugiada: 9°C
Umidità: 56%
Barometro: 1016 hPa
Nuvole: Prevalentemente Nuvoloso
Visibilità: 10 km
Nuvole nel Dettaglio: Prevalentemente Nuvoloso 1219 m
2019/11/18 13:20 LIRN 181320Z 20005KT 130V240 9999 BKN040 18/09 Q1016 NOSIG
LIBD - Bari Palese, It
Distanza dalla Stazione: 594 km
Ultimo Aggiornamento: Lunedì 18 Novembre 2019 14:20 CET
Parzialmente Nuvoloso
Parzialmente Nuvoloso
 Wind from Est-Sud-Est
Vento: Est-Sud-Est 15 km/h
Temperatura: 17°C
Punto di Rugiada: 9°C
Umidità: 59%
Barometro: 1017 hPa
Nuvole: Parzialmente Nuvoloso
Visibilità: 10 km
Nuvole nel Dettaglio: Parzialmente Nuvoloso 762 m
2019/11/18 13:20 LIBD 181320Z 11008KT 9999 SCT025 17/09 Q1017
LIBG - Taranto Grottaglie, It
Distanza dalla Stazione: 670 km
Ultimo Aggiornamento: Lunedì 18 Novembre 2019 13:50 CET
Qualche Nuvola
Qualche Nuvola
 Wind from Sud
Vento: Sud 6 km/h
Temperatura: 18°C
Punto di Rugiada: 9°C
Umidità: 56%
Barometro: 1017 hPa
Nuvole: Qualche Nuvola
Visibilità: 10 km
Nuvole nel Dettaglio: Qualche Nuvola 762 m
2019/11/18 12:50 LIBG 181250Z 17003KT 130V240 9999 FEW025 18/09 Q1017
 
LICR - Reggio Calabria, It
Distanza dalla Stazione: 819 km
Ultimo Aggiornamento: Lunedì 18 Novembre 2019 13:50 CET
Sereno
Sereno
 Wind from Sud-Sud-Ovest
Vento: Sud-Sud-Ovest 20 km/h
Temperatura: 17°C
Punto di Rugiada: 10°C
Umidità: 64%
Barometro: 1017 hPa
Condizioni: Sereno
Visibilità: superiore a 10 km
2019/11/18 12:50 LICR 181250Z 21011KT CAVOK 17/10 Q1017
LICJ - Palermo Punta Raisi, It
Distanza dalla Stazione: 762 km
Ultimo Aggiornamento: Lunedì 18 Novembre 2019 14:20 CET
Parzialmente Nuvoloso
Parzialmente Nuvoloso
 Wind from Sud
Vento: Sud 20 km/h, Raffica: 39 km/h
Temperatura: 18°C
Punto di Rugiada: 7°C
Umidità: 49%
Barometro: 1015 hPa
Nuvole: Parzialmente Nuvoloso
Visibilità: 10 km
Nuvole nel Dettaglio: Parzialmente Nuvoloso 1067 m
2019/11/18 13:20 LICJ 181320Z 19011G21KT 160V220 9999 SCT035 18/07 Q1015
LICC - Catania Fontanarossa, It
Distanza dalla Stazione: 866 km
Ultimo Aggiornamento: Lunedì 18 Novembre 2019 14:20 CET
Qualche Nuvola
Qualche Nuvola
 Wind from varies
Vento: variabile 4 km/h
Temperatura: 19°C
Punto di Rugiada: 8°C
Umidità: 49%
Barometro: 1017 hPa
Nuvole: Qualche Nuvola
Visibilità: 10 km
Nuvole nel Dettaglio: Qualche Nuvola 1829 m
2019/11/18 13:20 LICC 181320Z VRB02KT 9999 FEW060 19/08 Q1017
 
LIEE - Cagliari Elmas, It
Distanza dalla Stazione: 655 km
Ultimo Aggiornamento: Lunedì 18 Novembre 2019 14:20 CET
Parzialmente Nuvoloso
Parzialmente Nuvoloso
 Wind from Sud-Sud-Est
Vento: Sud-Sud-Est 22 km/h
Temperatura: 17°C
Punto di Rugiada: 9°C
Umidità: 59%
Barometro: 1009 hPa
Nuvole: Parzialmente Nuvoloso
Visibilità: 10 km
Nuvole nel Dettaglio: Parzialmente Nuvoloso 1067 m
2019/11/18 13:20 LIEE 181320Z 15012KT 9999 SCT035 17/09 Q1009
LIEO - Olbia, It
Distanza dalla Stazione: 463 km
Ultimo Aggiornamento: Lunedì 18 Novembre 2019 14:20 CET
Qualche Nuvola
Qualche Nuvola
 Wind from Sud-Est
Vento: Sud-Est 17 km/h
Temperatura: 17°C
Punto di Rugiada: 7°C
Umidità: 52%
Barometro: 1007 hPa
Nuvole: Qualche Nuvola
Visibilità: 10 km
Nuvole nel Dettaglio: Qualche Nuvola 1067 m
2019/11/18 13:20 LIEO 181320Z 14009KT 110V170 9999 FEW035 17/07 Q1007
LICG - Pantelleria, It
Distanza dalla Stazione: 893 km
Ultimo Aggiornamento: Lunedì 18 Novembre 2019 13:50 CET
Sereno
Sereno
 Wind from Sud
Vento: Sud 35 km/h
Temperatura: 16°C
Punto di Rugiada: 6°C
Umidità: 52%
Barometro: 1015 hPa
Condizioni: Sereno
Visibilità: superiore a 10 km
2019/11/18 12:50 LICG 181250Z 17019KT CAVOK 16/06 Q1015